createdAt,value
2018-11-07T00:00:23.116Z,93.20
2018-11-07T00:02:51.733Z,88.00
2018-11-07T00:05:20.764Z,76.27
2018-11-07T00:07:49.834Z,74.07
2018-11-07T00:10:18.215Z,85.43
2018-11-07T00:12:46.674Z,77.73
2018-11-07T00:15:15.822Z,78.63
2018-11-07T00:17:44.909Z,76.47
2018-11-07T00:20:13.658Z,73.20
2018-11-07T00:22:42.082Z,59.57
2018-11-07T00:25:11.506Z,66.97
2018-11-07T00:27:40.298Z,68.13
2018-11-07T00:30:09.838Z,68.67
2018-11-07T00:32:38.594Z,68.77
2018-11-07T00:35:08.151Z,71.60
2018-11-07T00:37:36.578Z,73.27
2018-11-07T00:40:05.064Z,74.27
2018-11-07T00:42:33.938Z,60.03
2018-11-07T00:45:02.390Z,59.57
2018-11-07T00:47:31.010Z,65.97
2018-11-07T00:49:59.462Z,60.97
2018-11-07T00:52:27.915Z,66.57
2018-11-07T00:54:56.399Z,69.53
2018-11-07T00:57:24.856Z,66.13
2018-11-07T01:00:12.425Z,65.17
2018-11-07T01:02:40.859Z,56.53
2018-11-07T01:05:10.791Z,56.37
2018-11-07T01:07:39.275Z,81.60
2018-11-07T01:10:08.424Z,96.80
2018-11-07T01:12:36.903Z,96.47
2018-11-07T01:15:06.808Z,76.30
2018-11-07T01:17:35.262Z,77.00
2018-11-07T01:20:03.988Z,98.83
2018-11-07T01:22:32.464Z,74.23
2018-11-07T01:25:01.161Z,67.07
2018-11-07T01:27:29.723Z,82.43
2018-11-07T01:29:58.317Z,89.33
2018-11-07T01:32:26.782Z,81.00
2018-11-07T01:34:55.798Z,98.57
2018-11-07T01:37:24.266Z,95.30
2018-11-07T01:39:53.711Z,116.73
2018-11-07T01:42:22.168Z,126.63
2018-11-07T01:44:50.625Z,121.23
2018-11-07T01:47:19.064Z,106.87
2018-11-07T01:49:47.521Z,94.97
2018-11-07T01:52:16.078Z,97.73
2018-11-07T01:54:44.578Z,78.47
2018-11-07T01:57:14.454Z,92.42
2018-11-07T01:59:42.902Z,80.30
2018-11-07T02:02:11.355Z,115.50
2018-11-07T02:04:39.789Z,107.10
2018-11-07T02:07:08.673Z,123.70
2018-11-07T02:09:37.112Z,118.77
2018-11-07T02:12:05.698Z,172.87
2018-11-07T02:14:34.129Z,124.07
2018-11-07T02:17:02.592Z,132.63
2018-11-07T02:19:31.095Z,146.37
2018-11-07T02:21:59.520Z,138.57
2018-11-07T02:24:27.983Z,148.23
2018-11-07T02:26:56.436Z,103.23
2018-11-07T02:29:24.864Z,100.03
2018-11-07T02:31:53.346Z,131.63
2018-11-07T02:34:21.772Z,173.93
2018-11-07T02:36:50.436Z,109.63
2018-11-07T02:39:18.887Z,109.17
2018-11-07T02:41:47.398Z,102.73
2018-11-07T02:44:15.912Z,299.40
2018-11-07T02:46:44.375Z,128.93
2018-11-07T02:49:12.881Z,107.23
2018-11-07T02:51:41.345Z,104.43
2018-11-07T02:54:09.783Z,95.73
2018-11-07T02:56:38.189Z,91.43
2018-11-07T02:59:06.937Z,85.90
2018-11-07T03:01:35.495Z,76.03
2018-11-07T03:04:04.012Z,85.23
2018-11-07T03:06:32.570Z,104.87
2018-11-07T03:09:01.031Z,103.73
2018-11-07T03:11:29.450Z,88.30
2018-11-07T03:13:57.886Z,89.77
2018-11-07T03:16:26.307Z,123.17
2018-11-07T03:18:54.873Z,137.53
2018-11-07T03:21:23.336Z,216.93
2018-11-07T03:23:51.805Z,122.47
2018-11-07T03:26:20.434Z,143.40
2018-11-07T03:28:48.991Z,102.83
2018-11-07T03:31:17.461Z,88.90
2018-11-07T03:33:45.899Z,169.53
2018-11-07T03:36:14.611Z,221.20
2018-11-07T03:38:43.040Z,194.70
2018-11-07T03:41:11.502Z,165.27
2018-11-07T03:43:40.085Z,166.17
2018-11-07T03:46:08.564Z,164.80
2018-11-07T03:48:37.023Z,188.03
2018-11-07T03:51:05.578Z,196.93
2018-11-07T03:53:34.045Z,187.33
2018-11-07T03:56:02.459Z,181.83
2018-11-07T03:58:30.907Z,260.43
2018-11-07T04:00:59.457Z,180.40
2018-11-07T04:03:27.936Z,102.57
2018-11-07T04:05:56.335Z,138.87
2018-11-07T04:08:24.911Z,154.07
2018-11-07T04:10:53.359Z,89.13
2018-11-07T04:13:21.904Z,147.13
2018-11-07T04:15:50.348Z,162.50
2018-11-07T04:18:18.816Z,172.57
2018-11-07T04:20:47.243Z,197.03
2018-11-07T04:23:15.679Z,140.13
2018-11-07T04:25:44.183Z,210.33
2018-11-07T04:28:12.799Z,208.43
2018-11-07T04:30:41.255Z,203.43
2018-11-07T04:33:09.686Z,75.73
2018-11-07T04:35:38.226Z,79.63
2018-11-07T04:38:06.667Z,99.07
2018-11-07T04:40:35.095Z,99.77
2018-11-07T04:43:03.521Z,273.73
2018-11-07T04:45:32.062Z,212.40
2018-11-07T04:48:00.501Z,282.70
2018-11-07T04:50:28.980Z,132.27
2018-11-07T04:52:57.405Z,210.50
2018-11-07T04:55:25.840Z,186.80
2018-11-07T04:57:54.533Z,203.83
2018-11-07T05:00:23.034Z,195.00
2018-11-07T05:02:51.503Z,143.10
2018-11-07T05:05:20.078Z,180.70
2018-11-07T05:07:48.527Z,179.17
2018-11-07T05:10:17.049Z,145.83
2018-11-07T05:12:45.484Z,119.20
2018-11-07T05:15:14.567Z,172.87
2018-11-07T05:17:43.238Z,214.07
2018-11-07T05:20:11.835Z,189.60
2018-11-07T05:22:40.526Z,260.23
2018-11-07T05:25:10.042Z,234.87
2018-11-07T05:27:38.507Z,97.80
2018-11-07T05:30:08.256Z,252.30
2018-11-07T05:32:36.724Z,249.60
2018-11-07T05:35:05.893Z,189.20
2018-11-07T05:37:35.008Z,166.30
2018-11-07T05:40:03.660Z,92.97
2018-11-07T05:42:32.230Z,98.60
2018-11-07T05:45:00.665Z,207.43
2018-11-07T05:47:29.175Z,162.80
2018-11-07T05:49:58.527Z,153.40
2018-11-07T05:52:27.411Z,136.23
2018-11-07T05:54:55.961Z,98.73
2018-11-07T05:57:24.395Z,236.17
2018-11-07T05:59:52.899Z,126.17
2018-11-07T06:02:21.422Z,107.27
2018-11-07T06:04:49.866Z,114.00
2018-11-07T06:07:18.431Z,123.43
2018-11-07T06:09:46.883Z,129.00
2018-11-07T06:12:15.362Z,136.47
2018-11-07T06:14:43.810Z,136.00
2018-11-07T06:17:12.265Z,137.67
2018-11-07T06:19:40.775Z,199.50
2018-11-07T06:22:09.473Z,97.83
2018-11-07T06:24:37.982Z,136.30
2018-11-07T06:27:06.519Z,99.80
2018-11-07T06:29:35.000Z,124.40
2018-11-07T06:32:03.498Z,162.00
2018-11-07T06:34:31.978Z,147.40
2018-11-07T06:37:00.554Z,217.30
2018-11-07T06:39:29.023Z,203.33
2018-11-07T06:41:57.656Z,118.33
2018-11-07T06:44:26.207Z,131.13
2018-11-07T06:46:54.672Z,98.63
2018-11-07T06:49:23.166Z,100.63
2018-11-07T06:51:51.780Z,131.43
2018-11-07T06:54:20.324Z,156.70
2018-11-07T06:56:48.786Z,109.43
2018-11-07T06:59:17.233Z,98.87
2018-11-07T07:01:45.663Z,114.10
2018-11-07T07:04:14.115Z,118.00
2018-11-07T07:06:42.636Z,97.53
2018-11-07T07:09:11.303Z,74.77
2018-11-07T07:11:40.060Z,89.70
2018-11-07T07:14:08.867Z,88.07
2018-11-07T07:16:37.339Z,113.37
2018-11-07T07:19:05.906Z,100.83
2018-11-07T07:21:34.377Z,88.83
2018-11-07T07:24:02.987Z,117.03
2018-11-07T07:26:31.512Z,109.13
2018-11-07T07:29:00.012Z,191.90
2018-11-07T07:31:28.620Z,114.47
2018-11-07T07:33:57.090Z,105.10
2018-11-07T07:36:25.566Z,83.83
2018-11-07T07:38:54.050Z,104.70
2018-11-07T07:41:22.512Z,71.57
2018-11-07T07:43:50.978Z,67.37
2018-11-07T07:46:19.470Z,73.07
2018-11-07T07:48:47.957Z,61.53
2018-11-07T07:51:16.417Z,58.03
2018-11-07T07:53:44.933Z,61.30
2018-11-07T07:56:13.378Z,50.73
2018-11-07T07:58:41.848Z,45.63
2018-11-07T08:01:10.321Z,50.63
2018-11-07T08:03:38.791Z,54.17
2018-11-07T08:06:07.309Z,34.27
2018-11-07T08:08:35.931Z,28.97
2018-11-07T08:11:04.420Z,25.47
2018-11-07T08:13:32.985Z,26.50
2018-11-07T08:16:01.413Z,23.13
2018-11-07T08:18:29.936Z,22.03
2018-11-07T08:20:58.419Z,23.27
2018-11-07T08:23:26.895Z,20.23
2018-11-07T08:25:55.371Z,22.47
2018-11-07T08:28:23.834Z,22.57
2018-11-07T08:30:52.359Z,22.47
2018-11-07T08:33:20.857Z,21.07
2018-11-07T08:35:49.305Z,19.57
2018-11-07T08:38:17.824Z,20.47
2018-11-07T08:40:46.279Z,19.90
2018-11-07T08:43:14.882Z,18.97
2018-11-07T08:45:43.440Z,19.77
2018-11-07T08:48:12.935Z,17.60
2018-11-07T08:50:41.536Z,17.40
2018-11-07T08:53:09.983Z,18.43
2018-11-07T08:55:38.434Z,18.77
2018-11-07T08:58:07.095Z,16.20
2018-11-07T09:00:35.603Z,18.07
2018-11-07T09:03:04.120Z,17.27
2018-11-07T09:05:32.649Z,16.90
2018-11-07T09:08:01.151Z,18.43
2018-11-07T09:10:29.676Z,16.93
2018-11-07T09:12:58.223Z,16.70
2018-11-07T09:15:26.734Z,17.03
2018-11-07T09:17:55.223Z,17.50
2018-11-07T09:20:24.622Z,15.87
2018-11-07T09:22:53.275Z,15.63
2018-11-07T09:25:21.850Z,16.67
2018-11-07T09:27:50.856Z,19.20
2018-11-07T09:30:20.662Z,16.77
2018-11-07T09:32:49.269Z,17.50
2018-11-07T09:35:18.017Z,16.00
2018-11-07T09:37:46.513Z,15.30
2018-11-07T09:40:17.072Z,15.23
2018-11-07T09:42:46.376Z,15.97
2018-11-07T09:45:16.198Z,16.47
2018-11-07T09:47:45.264Z,15.60
2018-11-07T09:50:14.600Z,15.27
2018-11-07T09:52:43.354Z,15.40
2018-11-07T09:55:13.618Z,16.23
2018-11-07T09:57:42.392Z,16.43
2018-11-07T10:00:12.671Z,15.53
2018-11-07T10:02:41.336Z,15.40
2018-11-07T10:05:10.383Z,15.43
2018-11-07T10:07:39.825Z,16.87
2018-11-07T10:10:10.314Z,18.77
2018-11-07T10:12:39.378Z,18.10
2018-11-07T10:15:08.367Z,19.07
2018-11-07T10:17:36.955Z,20.70
2018-11-07T10:20:07.917Z,17.77
2018-11-07T10:22:36.437Z,16.60
2018-11-07T10:25:05.221Z,17.70
2018-11-07T10:27:34.065Z,16.53
2018-11-07T10:30:03.250Z,17.77
2018-11-07T10:32:31.581Z,16.10
2018-11-07T10:35:00.113Z,16.57
2018-11-07T10:37:32.463Z,18.10
2018-11-07T10:39:57.220Z,18.00
2018-11-07T10:42:25.639Z,16.83
2018-11-07T10:44:54.120Z,16.80
2018-11-07T10:47:22.696Z,15.50
2018-11-07T10:49:51.868Z,14.67
2018-11-07T10:52:20.406Z,16.17
2018-11-07T10:54:49.220Z,14.77
2018-11-07T10:57:17.761Z,15.30
2018-11-07T10:59:47.186Z,14.87
2018-11-07T11:02:20.914Z,14.33
2018-11-07T11:04:49.374Z,14.33
2018-11-07T11:07:17.966Z,14.93
2018-11-07T11:09:46.451Z,13.83
2018-11-07T11:12:14.896Z,14.63
2018-11-07T11:14:43.668Z,14.20
2018-11-07T11:17:12.159Z,14.83
2018-11-07T11:19:40.609Z,12.80
2018-11-07T11:22:09.203Z,14.10
2018-11-07T11:24:38.264Z,13.37
2018-11-07T11:27:07.054Z,14.83
2018-11-07T11:29:35.565Z,16.20
2018-11-07T11:32:04.273Z,14.30
2018-11-07T11:34:32.880Z,14.33
2018-11-07T11:37:01.216Z,15.80
2018-11-07T11:39:29.767Z,17.57
2018-11-07T11:41:58.304Z,18.40
2018-11-07T11:44:26.800Z,16.20
2018-11-07T11:46:55.824Z,15.40
2018-11-07T11:49:24.262Z,15.53
2018-11-07T11:51:52.777Z,15.10
2018-11-07T11:54:21.221Z,14.43
2018-11-07T11:56:49.950Z,14.00
2018-11-07T11:59:18.655Z,14.70
2018-11-07T12:01:47.029Z,12.63
2018-11-07T12:04:15.506Z,14.23
2018-11-07T12:06:44.038Z,12.97
2018-11-07T12:09:13.240Z,12.90
2018-11-07T12:11:41.724Z,12.50
2018-11-07T12:14:10.195Z,10.30
2018-11-07T12:16:38.870Z,10.30
2018-11-07T12:19:07.520Z,10.80
2018-11-07T12:21:36.001Z,12.70
2018-11-07T12:24:04.854Z,9.93
2018-11-07T12:26:33.345Z,10.63
2018-11-07T12:29:01.880Z,11.43
2018-11-07T12:31:30.489Z,10.77
2018-11-07T12:33:59.126Z,9.77
2018-11-07T12:36:27.700Z,10.67
2018-11-07T12:38:56.242Z,11.53
2018-11-07T12:41:24.704Z,11.80
2018-11-07T12:43:54.675Z,10.50
2018-11-07T12:46:23.191Z,12.53
2018-11-07T12:48:51.744Z,12.37
2018-11-07T12:51:20.334Z,12.50
2018-11-07T12:53:48.803Z,13.97
2018-11-07T12:56:17.336Z,16.67
2018-11-07T12:58:45.910Z,16.90
2018-11-07T13:01:14.447Z,20.83
2018-11-07T13:03:43.043Z,19.10
2018-11-07T13:06:11.781Z,15.03
2018-11-07T13:08:40.596Z,14.63
2018-11-07T13:11:09.273Z,14.47
2018-11-07T13:13:37.829Z,14.13
2018-11-07T13:16:06.354Z,13.37
2018-11-07T13:18:34.884Z,14.17
2018-11-07T13:21:03.428Z,14.20
2018-11-07T13:23:31.979Z,13.10
2018-11-07T13:26:00.496Z,14.87
2018-11-07T13:28:29.996Z,14.67
2018-11-07T13:30:58.564Z,13.27
2018-11-07T13:33:27.050Z,16.10
2018-11-07T13:35:56.244Z,14.90
2018-11-07T13:38:25.186Z,12.83
2018-11-07T13:40:53.509Z,15.73
2018-11-07T13:43:22.159Z,13.17
2018-11-07T13:45:51.095Z,11.37
2018-11-07T13:48:19.586Z,13.00
2018-11-07T13:50:48.077Z,11.10
2018-11-07T13:53:17.313Z,10.47
2018-11-07T13:55:45.728Z,15.27
2018-11-07T13:58:14.252Z,18.40
2018-11-07T14:00:42.845Z,17.87
2018-11-07T14:03:11.338Z,15.00
2018-11-07T14:05:40.049Z,14.57
2018-11-07T14:08:08.450Z,16.77
2018-11-07T14:10:37.113Z,14.93
2018-11-07T14:13:05.628Z,16.00
2018-11-07T14:15:34.232Z,12.93
2018-11-07T14:18:02.960Z,16.53
2018-11-07T14:20:31.473Z,18.37
2018-11-07T14:23:00.071Z,14.13
2018-11-07T14:25:28.695Z,13.53
2018-11-07T14:27:57.533Z,15.00
2018-11-07T14:30:25.940Z,12.80
2018-11-07T14:32:57.584Z,12.73
2018-11-07T14:35:26.415Z,14.00
2018-11-07T14:37:55.836Z,12.37
2018-11-07T14:40:25.675Z,14.87
2018-11-07T14:42:54.276Z,10.53
2018-11-07T14:45:22.948Z,12.23
2018-11-07T14:47:52.603Z,13.30
2018-11-07T14:50:21.075Z,10.20
2018-11-07T14:52:49.633Z,9.70
2018-11-07T14:55:18.313Z,11.23
2018-11-07T14:57:47.032Z,12.73
2018-11-07T15:00:16.706Z,14.50
2018-11-07T15:02:45.940Z,16.00
2018-11-07T15:05:15.547Z,16.73
2018-11-07T15:07:44.535Z,13.70
2018-11-07T15:10:13.883Z,20.33
2018-11-07T15:12:42.389Z,29.73
2018-11-07T15:15:13.696Z,33.50
2018-11-07T15:17:42.288Z,61.00
2018-11-07T15:20:12.276Z,63.63
2018-11-07T15:22:40.952Z,23.30
2018-11-07T15:25:11.120Z,13.17
2018-11-07T15:27:40.223Z,9.87
2018-11-07T15:30:10.224Z,14.73
2018-11-07T15:32:39.530Z,18.20
2018-11-07T15:35:08.844Z,23.33
2018-11-07T15:37:37.714Z,16.17
2018-11-07T15:40:08.023Z,19.03
2018-11-07T15:42:36.788Z,17.27
2018-11-07T15:45:06.152Z,17.77
2018-11-07T15:47:35.332Z,22.33
2018-11-07T15:50:09.503Z,42.87
2018-11-07T15:52:38.039Z,36.67
2018-11-07T15:55:07.272Z,29.37
2018-11-07T15:57:35.840Z,27.10
2018-11-07T16:00:05.656Z,23.50
2018-11-07T16:02:34.053Z,29.37
2018-11-07T16:05:02.990Z,28.87
2018-11-07T16:07:31.471Z,25.40
2018-11-07T16:09:59.942Z,25.87
2018-11-07T16:12:28.490Z,33.70
2018-11-07T16:14:57.907Z,27.67
2018-11-07T16:17:27.335Z,26.73
2018-11-07T16:19:55.794Z,30.10
2018-11-07T16:22:24.232Z,31.97
2018-11-07T16:24:52.742Z,68.70
2018-11-07T16:27:21.476Z,32.30
2018-11-07T16:29:50.047Z,33.83
2018-11-07T16:32:18.633Z,36.03
2018-11-07T16:34:47.073Z,36.90
2018-11-07T16:37:16.177Z,42.30
2018-11-07T16:39:44.649Z,36.33
2018-11-07T16:42:13.161Z,34.87
2018-11-07T16:44:41.648Z,31.60
2018-11-07T16:47:10.192Z,37.80
2018-11-07T16:49:38.593Z,29.53
2018-11-07T16:52:07.050Z,32.07
2018-11-07T16:54:35.538Z,28.73
2018-11-07T16:57:04.041Z,33.10
2018-11-07T16:59:32.576Z,32.40
2018-11-07T17:02:01.133Z,34.00
2018-11-07T17:04:29.656Z,34.33
2018-11-07T17:06:58.458Z,34.67
2018-11-07T17:09:27.030Z,35.97
2018-11-07T17:11:55.620Z,35.47
2018-11-07T17:14:24.105Z,31.37
2018-11-07T17:16:52.948Z,32.73
2018-11-07T17:19:21.398Z,35.47
2018-11-07T17:21:49.985Z,31.53
2018-11-07T17:24:18.515Z,33.27
2018-11-07T17:26:47.050Z,33.63
2018-11-07T17:29:15.665Z,36.13
2018-11-07T17:31:44.252Z,33.97
2018-11-07T17:34:12.805Z,36.93
2018-11-07T17:36:41.302Z,33.07
2018-11-07T17:39:09.782Z,39.07
2018-11-07T17:41:38.340Z,36.53
2018-11-07T17:44:06.856Z,40.63
2018-11-07T17:46:35.409Z,43.73
2018-11-07T17:49:03.885Z,44.03
2018-11-07T17:51:32.370Z,41.53
2018-11-07T17:54:00.817Z,48.10
2018-11-07T17:56:29.355Z,42.27
2018-11-07T17:58:58.800Z,38.73
2018-11-07T18:01:27.252Z,656.93
2018-11-07T18:03:55.775Z,425.47
2018-11-07T18:06:24.211Z,225.87
2018-11-07T18:08:53.307Z,363.50
2018-11-07T18:11:21.808Z,274.80
2018-11-07T18:13:50.404Z,174.60
2018-11-07T18:16:19.494Z,169.30
2018-11-07T18:18:48.027Z,109.07
2018-11-07T18:21:16.398Z,64.30
2018-11-07T18:23:44.831Z,51.80
2018-11-07T18:26:13.311Z,55.83
2018-11-07T18:28:41.897Z,52.43
2018-11-07T18:31:10.331Z,52.07
2018-11-07T18:33:39.081Z,48.80
2018-11-07T18:36:07.526Z,60.63
2018-11-07T18:38:36.076Z,61.87
2018-11-07T18:41:04.866Z,50.43
2018-11-07T18:43:33.336Z,48.47
2018-11-07T18:46:01.795Z,47.13
2018-11-07T18:48:30.364Z,142.67
2018-11-07T18:50:59.059Z,226.70
2018-11-07T18:53:27.618Z,275.27
2018-11-07T18:55:56.061Z,106.17
2018-11-07T18:58:24.831Z,59.77
2018-11-07T19:00:53.266Z,48.87
2018-11-07T19:03:22.293Z,321.93
2018-11-07T19:05:50.841Z,384.30
2018-11-07T19:08:19.357Z,171.10
2018-11-07T19:10:48.218Z,167.10
2018-11-07T19:13:17.783Z,138.20
2018-11-07T19:15:46.523Z,96.47
2018-11-07T19:18:14.990Z,76.60
2018-11-07T19:20:43.474Z,109.17
2018-11-07T19:23:12.018Z,117.43
2018-11-07T19:25:40.545Z,126.07
2018-11-07T19:28:09.059Z,114.13
2018-11-07T19:30:37.493Z,131.47
2018-11-07T19:33:06.059Z,138.07
2018-11-07T19:35:34.586Z,150.33
2018-11-07T19:38:03.096Z,125.43
2018-11-07T19:40:31.539Z,124.87
2018-11-07T19:42:59.987Z,105.63
2018-11-07T19:45:28.477Z,106.73
2018-11-07T19:47:56.943Z,103.67
2018-11-07T19:50:25.402Z,99.50
2018-11-07T19:52:54.088Z,90.90
2018-11-07T19:55:24.003Z,96.30
2018-11-07T19:57:56.124Z,86.10
2018-11-07T20:00:24.940Z,95.83
2018-11-07T20:02:53.411Z,94.30
2018-11-07T20:05:21.863Z,79.87
2018-11-07T20:07:50.333Z,78.77
2018-11-07T20:10:19.923Z,73.40
2018-11-07T20:12:48.338Z,63.87
2018-11-07T20:15:17.942Z,60.33
2018-11-07T20:17:46.428Z,83.17
2018-11-07T20:20:15.210Z,66.77
2018-11-07T20:22:43.784Z,73.00
2018-11-07T20:25:13.070Z,66.80
2018-11-07T20:27:41.962Z,65.83
2018-11-07T20:30:12.162Z,56.60
2018-11-07T20:32:40.799Z,55.77
2018-11-07T20:35:12.585Z,56.93
2018-11-07T20:37:41.359Z,59.13
2018-11-07T20:40:12.601Z,48.40
2018-11-07T20:42:41.164Z,48.87
2018-11-07T20:45:10.795Z,65.57
2018-11-07T20:47:39.708Z,65.63
2018-11-07T20:50:10.661Z,62.33
2018-11-07T20:52:39.476Z,55.30
2018-11-07T20:55:08.318Z,64.77
2018-11-07T20:57:37.070Z,61.17
2018-11-07T21:00:16.517Z,56.47
2018-11-07T21:02:45.550Z,55.37
2018-11-07T21:05:14.021Z,54.70
2018-11-07T21:07:42.736Z,55.53
2018-11-07T21:10:19.394Z,55.60
2018-11-07T21:12:48.272Z,54.03
2018-11-07T21:15:17.647Z,57.70
2018-11-07T21:17:46.491Z,57.27
2018-11-07T21:20:15.211Z,59.80
2018-11-07T21:22:43.956Z,51.67
2018-11-07T21:25:12.756Z,56.13
2018-11-07T21:27:41.240Z,57.43
2018-11-07T21:30:11.850Z,51.07
2018-11-07T21:32:40.660Z,56.77
2018-11-07T21:35:09.283Z,52.57
2018-11-07T21:37:37.936Z,54.87
2018-11-07T21:40:08.380Z,54.37
2018-11-07T21:42:37.443Z,55.57
2018-11-07T21:45:08.549Z,54.40
2018-11-07T21:47:37.042Z,252.80
2018-11-07T21:50:06.570Z,191.80
2018-11-07T21:52:35.105Z,156.87
2018-11-07T21:55:03.607Z,140.97
2018-11-07T21:57:32.152Z,119.83
2018-11-07T22:00:00.736Z,151.77
2018-11-07T22:02:29.186Z,110.17
2018-11-07T22:04:57.678Z,96.63
2018-11-07T22:07:26.273Z,127.20
2018-11-07T22:09:54.809Z,132.80
2018-11-07T22:12:23.365Z,122.87
2018-11-07T22:14:51.827Z,87.57
2018-11-07T22:17:20.309Z,116.87
2018-11-07T22:19:48.806Z,107.70
2018-11-07T22:22:17.355Z,88.60
2018-11-07T22:24:45.792Z,64.17
2018-11-07T22:27:14.264Z,54.17
2018-11-07T22:29:42.676Z,45.63
2018-11-07T22:32:11.256Z,55.00
2018-11-07T22:34:39.727Z,45.00
2018-11-07T22:37:08.169Z,40.97
2018-11-07T22:39:36.631Z,43.37
2018-11-07T22:42:05.479Z,39.37
2018-11-07T22:44:34.115Z,40.63
2018-11-07T22:47:02.540Z,40.10
2018-11-07T22:49:30.957Z,39.73
2018-11-07T22:51:59.436Z,47.13
2018-11-07T22:54:27.864Z,67.37
2018-11-07T22:56:56.429Z,48.17
2018-11-07T22:59:24.875Z,48.50
2018-11-07T23:01:53.324Z,46.27
2018-11-07T23:04:21.772Z,56.40
2018-11-07T23:06:50.241Z,48.03
2018-11-07T23:09:18.667Z,47.93
2018-11-07T23:11:47.454Z,44.63
2018-11-07T23:14:16.084Z,43.47
2018-11-07T23:16:44.594Z,41.07
2018-11-07T23:19:13.649Z,43.40
2018-11-07T23:21:42.102Z,38.67
2018-11-07T23:24:10.555Z,35.53
2018-11-07T23:26:38.943Z,39.10
2018-11-07T23:29:07.430Z,38.00
2018-11-07T23:31:35.878Z,35.73
2018-11-07T23:34:04.320Z,37.20
2018-11-07T23:36:32.821Z,29.57
2018-11-07T23:39:01.284Z,32.63
2018-11-07T23:41:29.686Z,31.50
2018-11-07T23:43:58.132Z,29.43
2018-11-07T23:46:26.577Z,32.13
2018-11-07T23:48:55.726Z,28.80
2018-11-07T23:51:24.171Z,30.93
2018-11-07T23:53:54.318Z,27.03
2018-11-07T23:56:22.894Z,29.70
2018-11-07T23:58:51.322Z,28.37
